createdAt,value
2023-12-30T00:04:46.668Z,101196.34
2023-12-30T00:09:49.597Z,101196.88
2023-12-30T00:14:52.765Z,101197.34
2023-12-30T00:19:57.803Z,101180.53
2023-12-30T00:25:01.387Z,101176.31
2023-12-30T00:30:05.536Z,101170.72
2023-12-30T00:35:10.364Z,101169.75
2023-12-30T00:40:13.653Z,101160.34
2023-12-30T00:45:17.467Z,101174.59
2023-12-30T00:50:20.001Z,101167.16
2023-12-30T00:55:23.414Z,101167.69
2023-12-30T01:00:26.162Z,101164.75
2023-12-30T01:05:28.758Z,101160.69
2023-12-30T01:10:32.384Z,101164.78
2023-12-30T01:15:36.377Z,101161.13
2023-12-30T01:20:39.141Z,101158.88
2023-12-30T01:25:43.918Z,101163.19
2023-12-30T01:30:46.582Z,101162.81
2023-12-30T01:35:49.149Z,101163.25
2023-12-30T01:40:51.811Z,101160.59
2023-12-30T01:45:58.821Z,101158.47
2023-12-30T01:51:03.505Z,101158.25
2023-12-30T01:56:07.276Z,101159.88
2023-12-30T02:01:12.016Z,101154.31
2023-12-30T02:06:14.693Z,101165.97
2023-12-30T02:11:17.463Z,101158.72
2023-12-30T02:16:20.293Z,101154.56
2023-12-30T02:21:23.822Z,101150.78
2023-12-30T02:26:26.395Z,101148.25
2023-12-30T02:31:29.148Z,101159.16
2023-12-30T02:36:31.744Z,101161.16
2023-12-30T02:41:34.946Z,101143.81
2023-12-30T02:46:37.585Z,101161.88
2023-12-30T02:51:40.215Z,101152.09
2023-12-30T02:56:42.861Z,101153.91
2023-12-30T03:01:45.518Z,101167.19
2023-12-30T03:06:48.275Z,101171.78
2023-12-30T03:11:50.889Z,101171.69
2023-12-30T03:16:53.967Z,101183.16
2023-12-30T03:21:56.713Z,101176.00
2023-12-30T03:26:59.405Z,101181.19
2023-12-30T03:32:02.712Z,101172.44
2023-12-30T03:37:05.326Z,101181.81
2023-12-30T03:42:08.144Z,101178.75
2023-12-30T03:47:10.804Z,101164.34
2023-12-30T03:52:13.563Z,101169.09
2023-12-30T03:57:16.394Z,101164.22
2023-12-30T04:02:22.591Z,101155.41
2023-12-30T04:07:25.392Z,101171.63
2023-12-30T04:12:28.201Z,101193.56
2023-12-30T04:17:30.923Z,101177.88
2023-12-30T04:22:35.121Z,101194.78
2023-12-30T04:27:37.887Z,101200.91
2023-12-30T04:32:40.789Z,101201.75
2023-12-30T04:37:43.480Z,101209.03
2023-12-30T04:42:46.100Z,101214.94
2023-12-30T04:47:49.040Z,101223.34
2023-12-30T04:52:51.798Z,101222.34
2023-12-30T04:57:54.571Z,101219.00
2023-12-30T05:02:57.700Z,101217.84
2023-12-30T05:08:02.760Z,101216.19
2023-12-30T05:13:06.402Z,101243.84
2023-12-30T05:18:09.234Z,101216.59
2023-12-30T05:23:11.808Z,101223.97
2023-12-30T05:28:14.575Z,101227.59
2023-12-30T05:33:17.233Z,101213.56
2023-12-30T05:38:20.181Z,101206.59
2023-12-30T05:43:24.424Z,101217.03
2023-12-30T05:48:28.257Z,101220.94
2023-12-30T05:53:30.926Z,101211.19
2023-12-30T05:58:36.333Z,101222.28
2023-12-30T06:03:38.845Z,101224.53
2023-12-30T06:08:41.530Z,101225.47
2023-12-30T06:13:44.311Z,101232.63
2023-12-30T06:18:46.943Z,101217.28
2023-12-30T06:23:49.643Z,101230.28
2023-12-30T06:28:52.580Z,101248.88
2023-12-30T06:33:55.491Z,101240.63
2023-12-30T06:38:58.180Z,101241.34
2023-12-30T06:44:00.796Z,101248.25
2023-12-30T06:49:03.587Z,101268.88
2023-12-30T06:54:07.240Z,101251.34
2023-12-30T06:59:12.630Z,101276.81
2023-12-30T07:04:15.832Z,101280.91
2023-12-30T07:09:18.536Z,101290.69
2023-12-30T07:14:21.195Z,101281.00
2023-12-30T07:19:23.963Z,101277.53
2023-12-30T07:24:26.855Z,101275.47
2023-12-30T07:29:29.586Z,101273.50
2023-12-30T07:34:32.276Z,101283.56
2023-12-30T07:39:34.847Z,101272.78
2023-12-30T07:44:39.543Z,101274.28
2023-12-30T07:49:42.349Z,101268.72
2023-12-30T07:54:45.002Z,101257.16
2023-12-30T07:59:48.121Z,101253.56
2023-12-30T08:04:50.832Z,101239.53
2023-12-30T08:09:53.648Z,101242.75
2023-12-30T08:14:56.443Z,101243.91
2023-12-30T08:19:59.269Z,101235.69
2023-12-30T08:25:02.173Z,101230.97
2023-12-30T08:30:07.249Z,101222.13
2023-12-30T08:35:11.810Z,101233.28
2023-12-30T08:40:16.212Z,101228.19
2023-12-30T08:45:21.507Z,101223.38
2023-12-30T08:50:23.968Z,101217.59
2023-12-30T08:55:26.922Z,101225.69
2023-12-30T09:00:29.793Z,101230.84
2023-12-30T09:05:34.053Z,101217.28
2023-12-30T09:10:36.923Z,101218.72
2023-12-30T09:15:40.473Z,101223.53
2023-12-30T09:20:44.313Z,101219.28
2023-12-30T09:25:48.041Z,101224.31
2023-12-30T09:30:51.178Z,101222.75
2023-12-30T09:35:56.366Z,101224.16
2023-12-30T09:41:01.186Z,101239.56
2023-12-30T09:46:06.213Z,101231.22
2023-12-30T09:51:10.395Z,101210.63
2023-12-30T09:56:13.836Z,101202.69
2023-12-30T10:01:18.090Z,101199.28
2023-12-30T10:06:23.456Z,101195.31
2023-12-30T10:11:26.521Z,101196.22
2023-12-30T10:16:31.280Z,101200.84
2023-12-30T10:21:34.251Z,101198.22
2023-12-30T10:26:41.347Z,101207.47
2023-12-30T10:31:44.495Z,101207.59
2023-12-30T10:36:47.965Z,101205.22
2023-12-30T10:41:50.704Z,101216.66
2023-12-30T10:46:55.231Z,101216.13
2023-12-30T10:52:05.328Z,101216.69
2023-12-30T10:57:16.248Z,101206.34
2023-12-30T11:02:19.130Z,101205.56
2023-12-30T11:07:22.559Z,101182.81
2023-12-30T11:12:29.211Z,101201.38
2023-12-30T11:17:36.289Z,101196.28
2023-12-30T11:22:38.941Z,101208.03
2023-12-30T11:27:41.832Z,101212.25
2023-12-30T11:32:47.151Z,101215.88
2023-12-30T11:37:55.991Z,101226.44
2023-12-30T11:42:58.906Z,101221.47
2023-12-30T11:48:01.524Z,101238.41
2023-12-30T11:53:04.944Z,101228.09
2023-12-30T11:58:08.463Z,101260.09
2023-12-30T12:03:12.128Z,101251.13
2023-12-30T12:08:14.865Z,101266.03
2023-12-30T12:13:25.169Z,101259.00
2023-12-30T12:18:28.316Z,101262.13
2023-12-30T12:23:32.355Z,101261.00
2023-12-30T12:28:37.034Z,101254.72
2023-12-30T12:33:40.374Z,101262.59
2023-12-30T12:38:43.554Z,101272.13
2023-12-30T12:43:46.432Z,101291.00
2023-12-30T12:48:50.255Z,101294.34
2023-12-30T12:53:53.577Z,101285.47
2023-12-30T12:58:57.364Z,101300.22
2023-12-30T13:04:00.581Z,101287.13
2023-12-30T13:09:21.227Z,101289.31
2023-12-30T13:14:28.321Z,101285.47
2023-12-30T13:19:32.746Z,101279.13
2023-12-30T13:24:36.062Z,101279.56
2023-12-30T13:29:38.761Z,101296.84
2023-12-30T13:34:42.143Z,101295.59
2023-12-30T13:39:45.416Z,101297.56
2023-12-30T13:44:48.897Z,101301.22
2023-12-30T13:50:06.882Z,101302.75
2023-12-30T13:55:15.384Z,101296.06
2023-12-30T14:00:19.806Z,101292.69
2023-12-30T14:05:32.060Z,101299.00
2023-12-30T14:10:34.942Z,101296.47
2023-12-30T14:15:37.685Z,101290.31
2023-12-30T14:20:41.296Z,101295.34
2023-12-30T14:25:46.291Z,101285.81
2023-12-30T14:30:49.327Z,101294.50
2023-12-30T14:35:55.105Z,101288.34
2023-12-30T14:40:57.867Z,101284.00
2023-12-30T14:46:01.260Z,101283.75
2023-12-30T14:51:06.288Z,101270.75
2023-12-30T14:56:09.902Z,101287.25
2023-12-30T15:01:12.956Z,101294.53
2023-12-30T15:06:16.433Z,101297.34
2023-12-30T15:11:19.357Z,101293.28
2023-12-30T15:16:23.623Z,101295.56
2023-12-30T15:21:26.854Z,101302.56
2023-12-30T15:26:30.959Z,101294.16
2023-12-30T15:31:34.041Z,101300.19
2023-12-30T15:36:37.070Z,101291.66
2023-12-30T15:41:39.947Z,101292.50
2023-12-30T15:46:44.323Z,101293.63
2023-12-30T15:51:47.164Z,101285.38
2023-12-30T15:56:53.494Z,101299.38
2023-12-30T16:01:56.152Z,101297.44
2023-12-30T16:06:59.224Z,101314.97
2023-12-30T16:12:01.964Z,101321.50
2023-12-30T16:17:04.913Z,101323.06
2023-12-30T16:22:07.999Z,101320.94
2023-12-30T16:27:12.114Z,101322.34
2023-12-30T16:32:14.920Z,101327.25
2023-12-30T16:37:17.845Z,101329.75
2023-12-30T16:42:20.415Z,101336.50
2023-12-30T16:47:23.789Z,101341.34
2023-12-30T16:52:26.408Z,101345.25
2023-12-30T16:57:29.448Z,101352.31
2023-12-30T17:02:32.454Z,101340.09
2023-12-30T17:07:36.380Z,101337.84
2023-12-30T17:12:39.253Z,101325.09
2023-12-30T17:17:42.421Z,101322.63
2023-12-30T17:22:45.032Z,101321.69
2023-12-30T17:27:48.302Z,101326.75
2023-12-30T17:32:51.545Z,101318.25
2023-12-30T17:37:55.046Z,101311.84
2023-12-30T17:42:58.068Z,101325.25
2023-12-30T17:48:01.278Z,101312.53
2023-12-30T17:53:04.329Z,101322.50
2023-12-30T17:58:07.608Z,101315.38
2023-12-30T18:03:10.426Z,101318.06
2023-12-30T18:08:13.793Z,101311.06
2023-12-30T18:13:16.975Z,101277.22
2023-12-30T18:18:20.056Z,101275.81
2023-12-30T18:23:22.959Z,101306.47
2023-12-30T18:28:26.115Z,101298.38
2023-12-30T18:33:29.065Z,101291.06
2023-12-30T18:38:32.461Z,101295.50
2023-12-30T18:43:36.327Z,101293.28
2023-12-30T18:48:39.567Z,101295.38
2023-12-30T18:53:42.355Z,101292.72
2023-12-30T18:58:46.650Z,101286.03
2023-12-30T19:03:49.750Z,101293.84
2023-12-30T19:08:52.847Z,101305.56
2023-12-30T19:13:55.646Z,101303.44
2023-12-30T19:18:59.149Z,101303.84
2023-12-30T19:24:05.601Z,101312.38
2023-12-30T19:29:08.695Z,101300.53
2023-12-30T19:34:11.529Z,101299.41
2023-12-30T19:39:16.182Z,101297.88
2023-12-30T19:44:19.522Z,101305.19
2023-12-30T19:49:22.518Z,101310.50
2023-12-30T19:54:27.084Z,101297.50
2023-12-30T19:59:30.497Z,101292.56
2023-12-30T20:04:33.587Z,101287.56
2023-12-30T20:09:37.628Z,101289.94
2023-12-30T20:14:40.387Z,101285.16
2023-12-30T20:19:43.501Z,101280.72
2023-12-30T20:24:46.388Z,101277.63
2023-12-30T20:29:50.910Z,101280.41
2023-12-30T20:34:54.267Z,101268.94
2023-12-30T20:39:57.159Z,101273.28
2023-12-30T20:44:59.729Z,101276.22
2023-12-30T20:50:03.936Z,101269.63
2023-12-30T20:55:07.955Z,101268.25
2023-12-30T21:00:12.470Z,101263.78
2023-12-30T21:05:16.421Z,101249.78
2023-12-30T21:10:19.667Z,101241.25
2023-12-30T21:15:22.491Z,101231.59
2023-12-30T21:20:25.651Z,101238.44
2023-12-30T21:25:28.582Z,101225.00
2023-12-30T21:30:31.630Z,101223.63
2023-12-30T21:35:34.265Z,101227.28
2023-12-30T21:40:37.205Z,101232.56
2023-12-30T21:45:39.980Z,101231.47
2023-12-30T21:50:43.717Z,101208.53
2023-12-30T21:55:46.742Z,101210.47
2023-12-30T22:00:49.760Z,101217.19
2023-12-30T22:05:52.458Z,101210.34
2023-12-30T22:10:55.294Z,101204.88
2023-12-30T22:15:58.666Z,101186.56
2023-12-30T22:21:01.455Z,101202.38
2023-12-30T22:26:04.192Z,101174.13
2023-12-30T22:31:10.701Z,101169.63
2023-12-30T22:36:13.465Z,101169.34
2023-12-30T22:41:17.403Z,101165.56
2023-12-30T22:46:20.170Z,101149.72
2023-12-30T22:51:23.690Z,101150.97
2023-12-30T22:56:28.093Z,101155.47
2023-12-30T23:01:31.187Z,101140.50
2023-12-30T23:06:34.092Z,101139.50
2023-12-30T23:11:37.908Z,101127.50
2023-12-30T23:16:41.739Z,101143.25
2023-12-30T23:21:44.689Z,101141.59
2023-12-30T23:26:48.274Z,101138.06
2023-12-30T23:31:51.571Z,101141.28
2023-12-30T23:36:54.497Z,101137.78
2023-12-30T23:41:57.580Z,101123.66
2023-12-30T23:47:01.344Z,101112.66
2023-12-30T23:52:04.404Z,101113.88
2023-12-30T23:57:07.175Z,101102.75
